sensor_id;sensor_type;location;lat;lon;timestamp;P1;durP1;ratioP1;P2;durP2;ratioP2
27618;SDS011;15039;50.830;4.730;2023-02-02T00:01:48;12.23;;;2.65;;
27618;SDS011;15039;50.830;4.730;2023-02-02T00:04:19;14.18;;;4.75;;
27618;SDS011;15039;50.830;4.730;2023-02-02T00:06:47;13.95;;;3.50;;
27618;SDS011;15039;50.830;4.730;2023-02-02T00:09:17;13.63;;;3.13;;
27618;SDS011;15039;50.830;4.730;2023-02-02T00:11:44;9.25;;;2.47;;
27618;SDS011;15039;50.830;4.730;2023-02-02T00:14:11;10.85;;;3.03;;
27618;SDS011;15039;50.830;4.730;2023-02-02T00:16:44;14.00;;;3.05;;
27618;SDS011;15039;50.830;4.730;2023-02-02T00:19:20;11.27;;;3.00;;
27618;SDS011;15039;50.830;4.730;2023-02-02T00:21:50;7.28;;;2.75;;
27618;SDS011;15039;50.830;4.730;2023-02-02T00:24:16;14.95;;;3.13;;
27618;SDS011;15039;50.830;4.730;2023-02-02T00:26:44;13.50;;;3.08;;
27618;SDS011;15039;50.830;4.730;2023-02-02T00:29:18;13.85;;;2.78;;
27618;SDS011;15039;50.830;4.730;2023-02-02T00:31:49;13.75;;;3.15;;
27618;SDS011;15039;50.830;4.730;2023-02-02T00:34:15;11.23;;;2.60;;
27618;SDS011;15039;50.830;4.730;2023-02-02T00:36:42;11.65;;;2.58;;
27618;SDS011;15039;50.830;4.730;2023-02-02T00:39:08;12.45;;;3.10;;
27618;SDS011;15039;50.830;4.730;2023-02-02T00:41:36;10.17;;;3.30;;
27618;SDS011;15039;50.830;4.730;2023-02-02T00:44:02;9.13;;;2.60;;
27618;SDS011;15039;50.830;4.730;2023-02-02T00:46:46;13.48;;;3.35;;
27618;SDS011;15039;50.830;4.730;2023-02-02T00:49:12;11.30;;;2.90;;
27618;SDS011;15039;50.830;4.730;2023-02-02T00:51:38;13.50;;;3.22;;
27618;SDS011;15039;50.830;4.730;2023-02-02T00:54:03;7.45;;;2.35;;
27618;SDS011;15039;50.830;4.730;2023-02-02T00:56:29;18.55;;;3.70;;
27618;SDS011;15039;50.830;4.730;2023-02-02T00:58:55;12.23;;;2.83;;
27618;SDS011;15039;50.830;4.730;2023-02-02T01:01:21;13.02;;;3.28;;
27618;SDS011;15039;50.830;4.730;2023-02-02T01:03:47;9.77;;;2.95;;
27618;SDS011;15039;50.830;4.730;2023-02-02T01:06:14;13.38;;;2.78;;
27618;SDS011;15039;50.830;4.730;2023-02-02T01:08:40;11.05;;;3.30;;
27618;SDS011;15039;50.830;4.730;2023-02-02T01:11:06;13.75;;;2.58;;
27618;SDS011;15039;50.830;4.730;2023-02-02T01:13:32;16.95;;;3.40;;
27618;SDS011;15039;50.830;4.730;2023-02-02T01:15:58;9.23;;;3.45;;
27618;SDS011;15039;50.830;4.730;2023-02-02T01:18:25;12.32;;;3.35;;
27618;SDS011;15039;50.830;4.730;2023-02-02T01:20:59;14.48;;;3.47;;
27618;SDS011;15039;50.830;4.730;2023-02-02T01:23:26;16.10;;;2.83;;
27618;SDS011;15039;50.830;4.730;2023-02-02T01:25:52;11.15;;;3.05;;
27618;SDS011;15039;50.830;4.730;2023-02-02T01:28:19;12.40;;;3.03;;
27618;SDS011;15039;50.830;4.730;2023-02-02T01:30:45;14.70;;;3.33;;
27618;SDS011;15039;50.830;4.730;2023-02-02T01:33:11;9.68;;;2.72;;
27618;SDS011;15039;50.830;4.730;2023-02-02T01:35:36;14.02;;;3.80;;
27618;SDS011;15039;50.830;4.730;2023-02-02T01:38:16;13.77;;;3.33;;
27618;SDS011;15039;50.830;4.730;2023-02-02T01:40:49;8.55;;;2.25;;
27618;SDS011;15039;50.830;4.730;2023-02-02T01:43:28;14.00;;;3.20;;
27618;SDS011;15039;50.830;4.730;2023-02-02T01:46:10;17.48;;;2.80;;
27618;SDS011;15039;50.830;4.730;2023-02-02T01:48:36;14.00;;;3.10;;
27618;SDS011;15039;50.830;4.730;2023-02-02T01:51:05;13.52;;;3.47;;
27618;SDS011;15039;50.830;4.730;2023-02-02T01:53:35;12.20;;;2.65;;
27618;SDS011;15039;50.830;4.730;2023-02-02T01:56:02;12.95;;;3.13;;
27618;SDS011;15039;50.830;4.730;2023-02-02T01:58:31;15.32;;;3.13;;
27618;SDS011;15039;50.830;4.730;2023-02-02T02:00:59;12.65;;;3.28;;
27618;SDS011;15039;50.830;4.730;2023-02-02T02:03:25;9.85;;;2.47;;
27618;SDS011;15039;50.830;4.730;2023-02-02T02:08:27;12.27;;;3.10;;
27618;SDS011;15039;50.830;4.730;2023-02-02T02:10:56;8.50;;;2.80;;
27618;SDS011;15039;50.830;4.730;2023-02-02T02:13:23;9.82;;;2.88;;
27618;SDS011;15039;50.830;4.730;2023-02-02T02:19:03;13.25;;;3.13;;
27618;SDS011;15039;50.830;4.730;2023-02-02T02:21:46;11.07;;;3.35;;
27618;SDS011;15039;50.830;4.730;2023-02-02T02:25:24;11.88;;;3.58;;
27618;SDS011;15039;50.830;4.730;2023-02-02T02:38:46;14.85;;;3.38;;
27618;SDS011;15039;50.830;4.730;2023-02-02T02:41:20;13.02;;;2.88;;
27618;SDS011;15039;50.830;4.730;2023-02-02T02:43:49;10.95;;;3.90;;
27618;SDS011;15039;50.830;4.730;2023-02-02T02:46:20;9.88;;;3.10;;
27618;SDS011;15039;50.830;4.730;2023-02-02T02:48:46;15.77;;;3.22;;
27618;SDS011;15039;50.830;4.730;2023-02-02T02:54:10;10.75;;;3.05;;
27618;SDS011;15039;50.830;4.730;2023-02-02T03:02:08;12.27;;;3.20;;
27618;SDS011;15039;50.830;4.730;2023-02-02T03:10:34;12.65;;;2.85;;
27618;SDS011;15039;50.830;4.730;2023-02-02T03:13:04;11.98;;;3.63;;
27618;SDS011;15039;50.830;4.730;2023-02-02T03:15:32;9.45;;;2.65;;
27618;SDS011;15039;50.830;4.730;2023-02-02T03:17:58;8.32;;;2.22;;
27618;SDS011;15039;50.830;4.730;2023-02-02T03:20:24;10.48;;;2.95;;
27618;SDS011;15039;50.830;4.730;2023-02-02T03:22:49;12.32;;;2.78;;
27618;SDS011;15039;50.830;4.730;2023-02-02T03:25:15;10.20;;;2.90;;
27618;SDS011;15039;50.830;4.730;2023-02-02T03:27:40;12.68;;;3.20;;
27618;SDS011;15039;50.830;4.730;2023-02-02T03:30:07;9.40;;;2.83;;
27618;SDS011;15039;50.830;4.730;2023-02-02T03:32:35;10.60;;;3.35;;
27618;SDS011;15039;50.830;4.730;2023-02-02T03:35:01;9.75;;;2.60;;
27618;SDS011;15039;50.830;4.730;2023-02-02T03:37:27;13.20;;;3.10;;
27618;SDS011;15039;50.830;4.730;2023-02-02T03:39:53;10.30;;;2.75;;
27618;SDS011;15039;50.830;4.730;2023-02-02T03:42:18;10.65;;;2.65;;
27618;SDS011;15039;50.830;4.730;2023-02-02T03:44:44;8.60;;;2.53;;
27618;SDS011;15039;50.830;4.730;2023-02-02T03:47:09;12.52;;;3.38;;
27618;SDS011;15039;50.830;4.730;2023-02-02T03:49:35;11.02;;;3.03;;
27618;SDS011;15039;50.830;4.730;2023-02-02T03:52:01;11.32;;;2.90;;
27618;SDS011;15039;50.830;4.730;2023-02-02T03:54:28;12.73;;;2.72;;
27618;SDS011;15039;50.830;4.730;2023-02-02T03:56:54;11.88;;;3.00;;
27618;SDS011;15039;50.830;4.730;2023-02-02T03:59:20;12.70;;;3.13;;
27618;SDS011;15039;50.830;4.730;2023-02-02T04:01:45;9.32;;;2.33;;
27618;SDS011;15039;50.830;4.730;2023-02-02T04:04:11;9.00;;;2.55;;
27618;SDS011;15039;50.830;4.730;2023-02-02T04:06:37;11.20;;;3.47;;
27618;SDS011;15039;50.830;4.730;2023-02-02T04:09:02;8.50;;;2.28;;
27618;SDS011;15039;50.830;4.730;2023-02-02T04:11:28;8.75;;;2.30;;
27618;SDS011;15039;50.830;4.730;2023-02-02T04:13:54;9.65;;;2.80;;
27618;SDS011;15039;50.830;4.730;2023-02-02T04:16:20;17.63;;;2.72;;
27618;SDS011;15039;50.830;4.730;2023-02-02T04:18:45;10.35;;;2.90;;
27618;SDS011;15039;50.830;4.730;2023-02-02T04:21:11;11.75;;;2.65;;
27618;SDS011;15039;50.830;4.730;2023-02-02T04:23:36;13.65;;;3.08;;
27618;SDS011;15039;50.830;4.730;2023-02-02T04:26:02;13.77;;;3.22;;
27618;SDS011;15039;50.830;4.730;2023-02-02T04:28:28;9.18;;;2.40;;
27618;SDS011;15039;50.830;4.730;2023-02-02T04:30:55;9.00;;;2.70;;
27618;SDS011;15039;50.830;4.730;2023-02-02T04:33:21;10.80;;;2.70;;
27618;SDS011;15039;50.830;4.730;2023-02-02T04:35:48;11.88;;;2.50;;
27618;SDS011;15039;50.830;4.730;2023-02-02T04:38:14;7.35;;;2.50;;
27618;SDS011;15039;50.830;4.730;2023-02-02T04:40:40;9.95;;;2.28;;
27618;SDS011;15039;50.830;4.730;2023-02-02T04:43:07;14.95;;;3.10;;
27618;SDS011;15039;50.830;4.730;2023-02-02T04:45:33;8.10;;;2.22;;
27618;SDS011;15039;50.830;4.730;2023-02-02T04:47:59;7.60;;;2.40;;
27618;SDS011;15039;50.830;4.730;2023-02-02T04:50:26;9.98;;;2.70;;
27618;SDS011;15039;50.830;4.730;2023-02-02T04:52:52;10.35;;;2.75;;
27618;SDS011;15039;50.830;4.730;2023-02-02T04:55:17;9.07;;;2.33;;
27618;SDS011;15039;50.830;4.730;2023-02-02T04:57:43;8.63;;;2.58;;
27618;SDS011;15039;50.830;4.730;2023-02-02T05:00:09;13.10;;;3.72;;
27618;SDS011;15039;50.830;4.730;2023-02-02T05:02:36;8.98;;;2.30;;
27618;SDS011;15039;50.830;4.730;2023-02-02T05:05:04;11.73;;;2.47;;
27618;SDS011;15039;50.830;4.730;2023-02-02T05:07:31;13.43;;;2.50;;
27618;SDS011;15039;50.830;4.730;2023-02-02T05:09:57;10.85;;;2.38;;
27618;SDS011;15039;50.830;4.730;2023-02-02T05:12:22;10.48;;;2.58;;
27618;SDS011;15039;50.830;4.730;2023-02-02T05:14:48;6.78;;;2.03;;
27618;SDS011;15039;50.830;4.730;2023-02-02T05:17:14;10.88;;;2.80;;
27618;SDS011;15039;50.830;4.730;2023-02-02T05:19:40;6.60;;;2.08;;
27618;SDS011;15039;50.830;4.730;2023-02-02T05:22:06;12.10;;;2.67;;
27618;SDS011;15039;50.830;4.730;2023-02-02T05:24:32;9.70;;;2.92;;
27618;SDS011;15039;50.830;4.730;2023-02-02T05:26:58;13.82;;;3.03;;
27618;SDS011;15039;50.830;4.730;2023-02-02T05:29:28;10.85;;;3.20;;
27618;SDS011;15039;50.830;4.730;2023-02-02T05:31:54;7.55;;;3.00;;
27618;SDS011;15039;50.830;4.730;2023-02-02T05:34:21;11.18;;;2.60;;
27618;SDS011;15039;50.830;4.730;2023-02-02T05:36:47;9.23;;;2.90;;
27618;SDS011;15039;50.830;4.730;2023-02-02T05:39:13;8.90;;;3.03;;
27618;SDS011;15039;50.830;4.730;2023-02-02T05:41:39;7.57;;;2.60;;
27618;SDS011;15039;50.830;4.730;2023-02-02T05:44:05;11.02;;;1.98;;
27618;SDS011;15039;50.830;4.730;2023-02-02T05:46:31;8.35;;;2.63;;
27618;SDS011;15039;50.830;4.730;2023-02-02T05:48:56;15.82;;;2.63;;
27618;SDS011;15039;50.830;4.730;2023-02-02T05:51:30;10.93;;;2.42;;
27618;SDS011;15039;50.830;4.730;2023-02-02T05:53:57;10.00;;;2.60;;
27618;SDS011;15039;50.830;4.730;2023-02-02T05:56:22;8.23;;;2.22;;
27618;SDS011;15039;50.830;4.730;2023-02-02T05:58:48;8.07;;;2.65;;
27618;SDS011;15039;50.830;4.730;2023-02-02T06:01:16;9.60;;;2.88;;
27618;SDS011;15039;50.830;4.730;2023-02-02T06:03:42;14.70;;;3.08;;
27618;SDS011;15039;50.830;4.730;2023-02-02T06:06:08;11.77;;;2.65;;
27618;SDS011;15039;50.830;4.730;2023-02-02T06:08:34;8.88;;;2.45;;
27618;SDS011;15039;50.830;4.730;2023-02-02T06:11:13;9.65;;;2.38;;
27618;SDS011;15039;50.830;4.730;2023-02-02T06:13:41;13.65;;;2.72;;
27618;SDS011;15039;50.830;4.730;2023-02-02T06:16:06;7.60;;;2.20;;
27618;SDS011;15039;50.830;4.730;2023-02-02T06:18:33;8.18;;;2.42;;
27618;SDS011;15039;50.830;4.730;2023-02-02T06:21:00;10.13;;;2.58;;
27618;SDS011;15039;50.830;4.730;2023-02-02T06:23:27;12.70;;;2.80;;
27618;SDS011;15039;50.830;4.730;2023-02-02T06:25:53;9.73;;;2.60;;
27618;SDS011;15039;50.830;4.730;2023-02-02T06:28:18;10.15;;;2.55;;
27618;SDS011;15039;50.830;4.730;2023-02-02T06:30:44;9.27;;;2.70;;
27618;SDS011;15039;50.830;4.730;2023-02-02T06:33:10;10.27;;;2.53;;
27618;SDS011;15039;50.830;4.730;2023-02-02T06:35:36;7.82;;;2.53;;
27618;SDS011;15039;50.830;4.730;2023-02-02T06:38:01;10.10;;;2.55;;
27618;SDS011;15039;50.830;4.730;2023-02-02T06:40:27;12.27;;;3.35;;
27618;SDS011;15039;50.830;4.730;2023-02-02T06:42:56;14.48;;;2.58;;
27618;SDS011;15039;50.830;4.730;2023-02-02T06:45:23;11.18;;;2.83;;
27618;SDS011;15039;50.830;4.730;2023-02-02T06:47:49;11.85;;;3.05;;
27618;SDS011;15039;50.830;4.730;2023-02-02T06:50:15;9.93;;;2.90;;
27618;SDS011;15039;50.830;4.730;2023-02-02T06:52:51;12.35;;;3.55;;
27618;SDS011;15039;50.830;4.730;2023-02-02T06:55:20;9.20;;;2.75;;
27618;SDS011;15039;50.830;4.730;2023-02-02T06:57:45;7.35;;;3.05;;
27618;SDS011;15039;50.830;4.730;2023-02-02T07:00:12;11.98;;;2.45;;
27618;SDS011;15039;50.830;4.730;2023-02-02T07:02:38;9.57;;;2.95;;
27618;SDS011;15039;50.830;4.730;2023-02-02T07:05:04;10.15;;;2.67;;
27618;SDS011;15039;50.830;4.730;2023-02-02T07:07:30;12.77;;;2.65;;
27618;SDS011;15039;50.830;4.730;2023-02-02T07:09:57;7.93;;;2.75;;
27618;SDS011;15039;50.830;4.730;2023-02-02T07:12:22;9.52;;;3.22;;
27618;SDS011;15039;50.830;4.730;2023-02-02T07:14:48;8.27;;;2.50;;
27618;SDS011;15039;50.830;4.730;2023-02-02T07:17:14;16.33;;;3.75;;
27618;SDS011;15039;50.830;4.730;2023-02-02T07:19:41;7.82;;;2.70;;
27618;SDS011;15039;50.830;4.730;2023-02-02T07:22:06;13.48;;;2.80;;
27618;SDS011;15039;50.830;4.730;2023-02-02T07:24:32;8.32;;;2.28;;
27618;SDS011;15039;50.830;4.730;2023-02-02T07:26:57;9.38;;;2.65;;
27618;SDS011;15039;50.830;4.730;2023-02-02T07:29:23;16.67;;;3.08;;
27618;SDS011;15039;50.830;4.730;2023-02-02T07:31:49;15.63;;;3.20;;
27618;SDS011;15039;50.830;4.730;2023-02-02T07:34:15;10.45;;;3.53;;
27618;SDS011;15039;50.830;4.730;2023-02-02T07:36:41;9.55;;;2.90;;
27618;SDS011;15039;50.830;4.730;2023-02-02T07:39:06;11.63;;;2.80;;
27618;SDS011;15039;50.830;4.730;2023-02-02T07:41:33;11.13;;;2.92;;
27618;SDS011;15039;50.830;4.730;2023-02-02T07:43:59;12.73;;;3.45;;
27618;SDS011;15039;50.830;4.730;2023-02-02T07:46:25;9.98;;;2.75;;
27618;SDS011;15039;50.830;4.730;2023-02-02T07:48:54;15.95;;;2.88;;
27618;SDS011;15039;50.830;4.730;2023-02-02T07:51:21;17.00;;;3.30;;
27618;SDS011;15039;50.830;4.730;2023-02-02T07:53:48;6.55;;;2.67;;
27618;SDS011;15039;50.830;4.730;2023-02-02T07:56:19;13.60;;;3.13;;
27618;SDS011;15039;50.830;4.730;2023-02-02T07:58:47;8.32;;;2.50;;
27618;SDS011;15039;50.830;4.730;2023-02-02T08:01:15;9.85;;;2.47;;
27618;SDS011;15039;50.830;4.730;2023-02-02T08:03:41;9.30;;;2.60;;
27618;SDS011;15039;50.830;4.730;2023-02-02T08:06:08;9.13;;;2.80;;
27618;SDS011;15039;50.830;4.730;2023-02-02T08:08:42;11.23;;;2.03;;
27618;SDS011;15039;50.830;4.730;2023-02-02T08:11:08;8.00;;;2.70;;
27618;SDS011;15039;50.830;4.730;2023-02-02T08:13:35;11.70;;;2.17;;
27618;SDS011;15039;50.830;4.730;2023-02-02T08:16:01;10.15;;;2.75;;
27618;SDS011;15039;50.830;4.730;2023-02-02T08:18:27;9.15;;;2.50;;
27618;SDS011;15039;50.830;4.730;2023-02-02T08:20:56;12.75;;;2.83;;
27618;SDS011;15039;50.830;4.730;2023-02-02T08:23:22;12.27;;;2.50;;
27618;SDS011;15039;50.830;4.730;2023-02-02T08:25:48;9.88;;;2.25;;
27618;SDS011;15039;50.830;4.730;2023-02-02T08:28:15;9.98;;;2.50;;
27618;SDS011;15039;50.830;4.730;2023-02-02T08:30:41;8.98;;;2.33;;
27618;SDS011;15039;50.830;4.730;2023-02-02T08:33:06;9.35;;;2.28;;
27618;SDS011;15039;50.830;4.730;2023-02-02T08:35:32;10.95;;;2.80;;
27618;SDS011;15039;50.830;4.730;2023-02-02T08:37:58;7.45;;;2.45;;
27618;SDS011;15039;50.830;4.730;2023-02-02T08:40:27;8.50;;;2.20;;
27618;SDS011;15039;50.830;4.730;2023-02-02T08:42:53;8.45;;;2.25;;
27618;SDS011;15039;50.830;4.730;2023-02-02T08:45:19;15.27;;;2.78;;
27618;SDS011;15039;50.830;4.730;2023-02-02T08:47:45;8.60;;;2.58;;
27618;SDS011;15039;50.830;4.730;2023-02-02T08:50:10;9.55;;;2.05;;
27618;SDS011;15039;50.830;4.730;2023-02-02T08:52:36;10.40;;;2.42;;
27618;SDS011;15039;50.830;4.730;2023-02-02T08:55:02;7.22;;;1.75;;
27618;SDS011;15039;50.830;4.730;2023-02-02T08:57:28;7.63;;;2.65;;
27618;SDS011;15039;50.830;4.730;2023-02-02T08:59:56;7.07;;;1.85;;
27618;SDS011;15039;50.830;4.730;2023-02-02T09:02:22;10.57;;;2.47;;
27618;SDS011;15039;50.830;4.730;2023-02-02T09:04:48;11.38;;;3.25;;
27618;SDS011;15039;50.830;4.730;2023-02-02T09:07:13;8.45;;;2.33;;
27618;SDS011;15039;50.830;4.730;2023-02-02T09:09:39;7.35;;;2.05;;
27618;SDS011;15039;50.830;4.730;2023-02-02T09:12:04;9.30;;;2.15;;
27618;SDS011;15039;50.830;4.730;2023-02-02T09:14:30;10.02;;;2.35;;
27618;SDS011;15039;50.830;4.730;2023-02-02T09:16:56;10.18;;;2.78;;
27618;SDS011;15039;50.830;4.730;2023-02-02T09:19:22;9.63;;;2.55;;
27618;SDS011;15039;50.830;4.730;2023-02-02T09:21:50;8.18;;;2.17;;
27618;SDS011;15039;50.830;4.730;2023-02-02T09:24:16;9.88;;;2.30;;
27618;SDS011;15039;50.830;4.730;2023-02-02T09:26:42;9.60;;;2.55;;
27618;SDS011;15039;50.830;4.730;2023-02-02T09:29:12;5.68;;;1.83;;
27618;SDS011;15039;50.830;4.730;2023-02-02T09:31:40;5.03;;;2.15;;
27618;SDS011;15039;50.830;4.730;2023-02-02T09:34:10;5.05;;;1.92;;
27618;SDS011;15039;50.830;4.730;2023-02-02T09:36:37;12.75;;;2.17;;
27618;SDS011;15039;50.830;4.730;2023-02-02T09:39:04;8.07;;;1.92;;
27618;SDS011;15039;50.830;4.730;2023-02-02T09:44:04;8.35;;;2.72;;
27618;SDS011;15039;50.830;4.730;2023-02-02T09:49:08;8.38;;;2.22;;
27618;SDS011;15039;50.830;4.730;2023-02-02T09:51:38;7.43;;;2.08;;
27618;SDS011;15039;50.830;4.730;2023-02-02T09:54:32;5.90;;;2.00;;
27618;SDS011;15039;50.830;4.730;2023-02-02T09:57:08;9.02;;;2.00;;
27618;SDS011;15039;50.830;4.730;2023-02-02T10:00:09;7.80;;;2.72;;
27618;SDS011;15039;50.830;4.730;2023-02-02T10:02:51;9.85;;;2.15;;
27618;SDS011;15039;50.830;4.730;2023-02-02T10:05:24;5.47;;;2.00;;
27618;SDS011;15039;50.830;4.730;2023-02-02T10:07:55;9.50;;;1.88;;
27618;SDS011;15039;50.830;4.730;2023-02-02T10:16:01;9.55;;;2.63;;
27618;SDS011;15039;50.830;4.730;2023-02-02T10:21:10;4.32;;;2.10;;
27618;SDS011;15039;50.830;4.730;2023-02-02T10:23:42;5.68;;;2.10;;
27618;SDS011;15039;50.830;4.730;2023-02-02T10:26:28;5.53;;;2.28;;
27618;SDS011;15039;50.830;4.730;2023-02-02T10:43:17;6.60;;;1.85;;
27618;SDS011;15039;50.830;4.730;2023-02-02T10:46:25;7.70;;;1.98;;
27618;SDS011;15039;50.830;4.730;2023-02-02T10:49:10;10.20;;;2.08;;
27618;SDS011;15039;50.830;4.730;2023-02-02T10:51:49;8.00;;;2.20;;
27618;SDS011;15039;50.830;4.730;2023-02-02T10:55:05;6.32;;;1.98;;
27618;SDS011;15039;50.830;4.730;2023-02-02T10:57:15;5.80;;;1.77;;
27618;SDS011;15039;50.830;4.730;2023-02-02T10:59:54;6.53;;;2.03;;
27618;SDS011;15039;50.830;4.730;2023-02-02T11:02:39;6.20;;;1.60;;
27618;SDS011;15039;50.830;4.730;2023-02-02T11:05:05;7.40;;;1.90;;
27618;SDS011;15039;50.830;4.730;2023-02-02T11:07:56;3.60;;;1.60;;
27618;SDS011;15039;50.830;4.730;2023-02-02T11:10:21;7.95;;;2.08;;
27618;SDS011;15039;50.830;4.730;2023-02-02T11:12:47;6.10;;;2.10;;
27618;SDS011;15039;50.830;4.730;2023-02-02T11:15:27;10.57;;;1.98;;
27618;SDS011;15039;50.830;4.730;2023-02-02T11:17:54;7.38;;;2.13;;
27618;SDS011;15039;50.830;4.730;2023-02-02T11:20:21;4.13;;;1.67;;
27618;SDS011;15039;50.830;4.730;2023-02-02T11:22:59;5.78;;;1.88;;
27618;SDS011;15039;50.830;4.730;2023-02-02T11:25:29;9.32;;;1.80;;
27618;SDS011;15039;50.830;4.730;2023-02-02T11:27:58;5.93;;;1.90;;
27618;SDS011;15039;50.830;4.730;2023-02-02T11:30:27;8.23;;;2.10;;
27618;SDS011;15039;50.830;4.730;2023-02-02T11:32:57;11.10;;;2.47;;
27618;SDS011;15039;50.830;4.730;2023-02-02T11:35:24;6.82;;;1.42;;
27618;SDS011;15039;50.830;4.730;2023-02-02T11:42:46;7.32;;;2.15;;
27618;SDS011;15039;50.830;4.730;2023-02-02T11:45:21;4.43;;;1.80;;
27618;SDS011;15039;50.830;4.730;2023-02-02T11:47:59;9.98;;;3.10;;
27618;SDS011;15039;50.830;4.730;2023-02-02T11:50:38;10.77;;;2.47;;
27618;SDS011;15039;50.830;4.730;2023-02-02T11:53:33;4.35;;;1.85;;
27618;SDS011;15039;50.830;4.730;2023-02-02T11:56:19;8.10;;;2.40;;
27618;SDS011;15039;50.830;4.730;2023-02-02T11:58:49;6.82;;;1.60;;
27618;SDS011;15039;50.830;4.730;2023-02-02T12:01:26;7.72;;;1.70;;
27618;SDS011;15039;50.830;4.730;2023-02-02T12:03:54;6.10;;;1.70;;
27618;SDS011;15039;50.830;4.730;2023-02-02T12:08:50;5.80;;;1.40;;
27618;SDS011;15039;50.830;4.730;2023-02-02T12:16:44;3.85;;;1.90;;
27618;SDS011;15039;50.830;4.730;2023-02-02T12:25:02;7.10;;;2.30;;
27618;SDS011;15039;50.830;4.730;2023-02-02T12:30:28;6.82;;;2.38;;
27618;SDS011;15039;50.830;4.730;2023-02-02T12:35:47;9.98;;;2.08;;
27618;SDS011;15039;50.830;4.730;2023-02-02T12:38:35;7.05;;;1.67;;
27618;SDS011;15039;50.830;4.730;2023-02-02T12:43:37;6.05;;;2.03;;
27618;SDS011;15039;50.830;4.730;2023-02-02T12:49:00;4.35;;;1.67;;
27618;SDS011;15039;50.830;4.730;2023-02-02T13:05:11;4.22;;;1.73;;
27618;SDS011;15039;50.830;4.730;2023-02-02T13:07:53;5.75;;;1.63;;
27618;SDS011;15039;50.830;4.730;2023-02-02T13:12:54;4.53;;;1.60;;
27618;SDS011;15039;50.830;4.730;2023-02-02T13:15:27;4.50;;;1.63;;
27618;SDS011;15039;50.830;4.730;2023-02-02T13:18:00;7.78;;;1.60;;
27618;SDS011;15039;50.830;4.730;2023-02-02T13:20:47;7.40;;;1.90;;
27618;SDS011;15039;50.830;4.730;2023-02-02T13:23:24;7.18;;;1.50;;
27618;SDS011;15039;50.830;4.730;2023-02-02T13:25:58;3.05;;;1.65;;
27618;SDS011;15039;50.830;4.730;2023-02-02T13:31:17;4.00;;;1.73;;
27618;SDS011;15039;50.830;4.730;2023-02-02T13:33:48;5.22;;;1.40;;
27618;SDS011;15039;50.830;4.730;2023-02-02T13:36:29;4.57;;;2.17;;
27618;SDS011;15039;50.830;4.730;2023-02-02T13:39:02;6.32;;;1.52;;
27618;SDS011;15039;50.830;4.730;2023-02-02T13:41:42;5.53;;;1.30;;
27618;SDS011;15039;50.830;4.730;2023-02-02T13:44:43;5.43;;;1.30;;
27618;SDS011;15039;50.830;4.730;2023-02-02T13:47:07;4.95;;;1.40;;
27618;SDS011;15039;50.830;4.730;2023-02-02T13:49:47;3.40;;;1.55;;
27618;SDS011;15039;50.830;4.730;2023-02-02T14:00:47;3.60;;;1.27;;
27618;SDS011;15039;50.830;4.730;2023-02-02T14:06:09;7.30;;;1.58;;
27618;SDS011;15039;50.830;4.730;2023-02-02T14:08:47;3.55;;;1.35;;
27618;SDS011;15039;50.830;4.730;2023-02-02T14:11:18;5.30;;;1.40;;
27618;SDS011;15039;50.830;4.730;2023-02-02T14:13:47;4.20;;;1.50;;
27618;SDS011;15039;50.830;4.730;2023-02-02T14:19:03;2.75;;;1.30;;
27618;SDS011;15039;50.830;4.730;2023-02-02T14:23:57;4.20;;;1.48;;
27618;SDS011;15039;50.830;4.730;2023-02-02T14:35:50;5.55;;;1.60;;
27618;SDS011;15039;50.830;4.730;2023-02-02T14:37:46;4.07;;;1.10;;
27618;SDS011;15039;50.830;4.730;2023-02-02T14:48:42;7.50;;;1.40;;
27618;SDS011;15039;50.830;4.730;2023-02-02T14:51:18;3.40;;;1.40;;
27618;SDS011;15039;50.830;4.730;2023-02-02T14:53:49;4.63;;;1.17;;
27618;SDS011;15039;50.830;4.730;2023-02-02T14:56:18;5.35;;;1.30;;
27618;SDS011;15039;50.830;4.730;2023-02-02T14:58:52;4.78;;;1.85;;
27618;SDS011;15039;50.830;4.730;2023-02-02T15:03:56;7.03;;;1.50;;
27618;SDS011;15039;50.830;4.730;2023-02-02T15:12:28;4.78;;;1.25;;
27618;SDS011;15039;50.830;4.730;2023-02-02T15:17:05;6.97;;;1.42;;
27618;SDS011;15039;50.830;4.730;2023-02-02T15:25:23;3.17;;;1.27;;
27618;SDS011;15039;50.830;4.730;2023-02-02T15:30:52;4.03;;;1.20;;
27618;SDS011;15039;50.830;4.730;2023-02-02T15:33:26;2.80;;;1.40;;
27618;SDS011;15039;50.830;4.730;2023-02-02T15:36:01;4.45;;;1.73;;
27618;SDS011;15039;50.830;4.730;2023-02-02T15:38:32;4.07;;;1.92;;
27618;SDS011;15039;50.830;4.730;2023-02-02T15:41:06;5.50;;;1.77;;
27618;SDS011;15039;50.830;4.730;2023-02-02T15:43:49;3.75;;;1.90;;
27618;SDS011;15039;50.830;4.730;2023-02-02T15:46:16;3.70;;;1.90;;
27618;SDS011;15039;50.830;4.730;2023-02-02T15:49:12;5.38;;;2.33;;
27618;SDS011;15039;50.830;4.730;2023-02-02T15:51:45;5.95;;;2.30;;
27618;SDS011;15039;50.830;4.730;2023-02-02T15:54:20;3.63;;;1.75;;
27618;SDS011;15039;50.830;4.730;2023-02-02T15:56:54;9.02;;;2.05;;
27618;SDS011;15039;50.830;4.730;2023-02-02T15:59:22;5.82;;;2.15;;
27618;SDS011;15039;50.830;4.730;2023-02-02T16:04:25;6.25;;;1.70;;
27618;SDS011;15039;50.830;4.730;2023-02-02T16:06:55;6.35;;;1.85;;
27618;SDS011;15039;50.830;4.730;2023-02-02T16:09:23;5.15;;;1.88;;
27618;SDS011;15039;50.830;4.730;2023-02-02T16:11:51;4.72;;;1.90;;
27618;SDS011;15039;50.830;4.730;2023-02-02T16:14:17;5.60;;;1.83;;
27618;SDS011;15039;50.830;4.730;2023-02-02T16:16:44;3.40;;;1.80;;
27618;SDS011;15039;50.830;4.730;2023-02-02T16:24:21;5.50;;;1.52;;
27618;SDS011;15039;50.830;4.730;2023-02-02T16:26:53;5.28;;;1.90;;
27618;SDS011;15039;50.830;4.730;2023-02-02T16:29:21;3.50;;;1.50;;
27618;SDS011;15039;50.830;4.730;2023-02-02T16:31:48;5.30;;;1.98;;
27618;SDS011;15039;50.830;4.730;2023-02-02T16:34:20;4.75;;;1.67;;
27618;SDS011;15039;50.830;4.730;2023-02-02T16:37:19;6.82;;;2.00;;
27618;SDS011;15039;50.830;4.730;2023-02-02T16:39:49;6.18;;;2.22;;
27618;SDS011;15039;50.830;4.730;2023-02-02T16:42:28;4.13;;;1.60;;
27618;SDS011;15039;50.830;4.730;2023-02-02T16:44:55;5.95;;;2.15;;
27618;SDS011;15039;50.830;4.730;2023-02-02T16:52:33;6.72;;;2.00;;
27618;SDS011;15039;50.830;4.730;2023-02-02T16:55:14;4.75;;;2.40;;
27618;SDS011;15039;50.830;4.730;2023-02-02T16:57:41;4.22;;;1.98;;
27618;SDS011;15039;50.830;4.730;2023-02-02T17:00:20;4.07;;;1.67;;
27618;SDS011;15039;50.830;4.730;2023-02-02T17:02:49;2.92;;;1.63;;
27618;SDS011;15039;50.830;4.730;2023-02-02T17:05:20;2.45;;;1.45;;
27618;SDS011;15039;50.830;4.730;2023-02-02T17:07:53;3.97;;;1.63;;
27618;SDS011;15039;50.830;4.730;2023-02-02T17:10:26;6.82;;;1.70;;
27618;SDS011;15039;50.830;4.730;2023-02-02T17:12:55;9.10;;;1.95;;
27618;SDS011;15039;50.830;4.730;2023-02-02T17:15:29;3.47;;;2.03;;
27618;SDS011;15039;50.830;4.730;2023-02-02T17:18:00;7.00;;;2.25;;
27618;SDS011;15039;50.830;4.730;2023-02-02T17:20:26;7.53;;;2.10;;
27618;SDS011;15039;50.830;4.730;2023-02-02T17:22:57;5.22;;;2.10;;
27618;SDS011;15039;50.830;4.730;2023-02-02T17:25:33;10.68;;;2.60;;
27618;SDS011;15039;50.830;4.730;2023-02-02T17:28:01;8.88;;;2.58;;
27618;SDS011;15039;50.830;4.730;2023-02-02T17:30:30;7.22;;;2.55;;
27618;SDS011;15039;50.830;4.730;2023-02-02T17:32:56;4.40;;;1.95;;
27618;SDS011;15039;50.830;4.730;2023-02-02T17:35:22;7.72;;;2.17;;
27618;SDS011;15039;50.830;4.730;2023-02-02T17:37:49;6.30;;;2.22;;
27618;SDS011;15039;50.830;4.730;2023-02-02T17:40:17;5.47;;;2.40;;
27618;SDS011;15039;50.830;4.730;2023-02-02T17:42:44;5.07;;;2.42;;
27618;SDS011;15039;50.830;4.730;2023-02-02T17:45:13;5.32;;;2.58;;
27618;SDS011;15039;50.830;4.730;2023-02-02T17:48:01;6.17;;;2.87;;
27618;SDS011;15039;50.830;4.730;2023-02-02T17:50:27;6.05;;;3.38;;
27618;SDS011;15039;50.830;4.730;2023-02-02T17:52:54;4.55;;;2.15;;